sensor_id;sensor_type;location;lat;lon;timestamp;P1;durP1;ratioP1;P2;durP2;ratioP2
39454;SDS011;25155;41.890;23.446;2023-06-19T00:01:01;5.80;;;4.30;;
39454;SDS011;25155;41.890;23.446;2023-06-19T00:03:28;6.05;;;4.43;;
39454;SDS011;25155;41.890;23.446;2023-06-19T00:05:55;4.80;;;3.50;;
39454;SDS011;25155;41.890;23.446;2023-06-19T00:08:23;4.93;;;3.42;;
39454;SDS011;25155;41.890;23.446;2023-06-19T00:10:51;6.95;;;4.70;;
39454;SDS011;25155;41.890;23.446;2023-06-19T00:13:19;7.53;;;4.25;;
39454;SDS011;25155;41.890;23.446;2023-06-19T00:15:46;5.53;;;3.78;;
39454;SDS011;25155;41.890;23.446;2023-06-19T00:18:14;4.68;;;3.30;;
39454;SDS011;25155;41.890;23.446;2023-06-19T00:20:41;4.32;;;2.83;;
39454;SDS011;25155;41.890;23.446;2023-06-19T00:23:11;3.58;;;2.50;;
39454;SDS011;25155;41.890;23.446;2023-06-19T00:25:40;3.63;;;2.63;;
39454;SDS011;25155;41.890;23.446;2023-06-19T00:28:10;4.03;;;2.78;;
39454;SDS011;25155;41.890;23.446;2023-06-19T00:30:40;3.60;;;2.60;;
39454;SDS011;25155;41.890;23.446;2023-06-19T00:33:07;4.05;;;2.83;;
39454;SDS011;25155;41.890;23.446;2023-06-19T00:35:35;6.22;;;3.47;;
39454;SDS011;25155;41.890;23.446;2023-06-19T00:38:05;5.18;;;3.83;;
39454;SDS011;25155;41.890;23.446;2023-06-19T00:40:33;6.32;;;4.15;;
39454;SDS011;25155;41.890;23.446;2023-06-19T00:43:00;7.65;;;5.10;;
39454;SDS011;25155;41.890;23.446;2023-06-19T00:45:30;8.43;;;4.32;;
39454;SDS011;25155;41.890;23.446;2023-06-19T00:47:57;5.60;;;3.67;;
39454;SDS011;25155;41.890;23.446;2023-06-19T00:50:27;5.35;;;4.07;;
39454;SDS011;25155;41.890;23.446;2023-06-19T00:52:55;6.53;;;4.40;;
39454;SDS011;25155;41.890;23.446;2023-06-19T00:55:23;6.20;;;4.70;;
39454;SDS011;25155;41.890;23.446;2023-06-19T00:57:52;6.88;;;4.75;;
39454;SDS011;25155;41.890;23.446;2023-06-19T01:00:19;6.97;;;4.80;;
39454;SDS011;25155;41.890;23.446;2023-06-19T01:02:47;5.80;;;4.60;;
39454;SDS011;25155;41.890;23.446;2023-06-19T01:05:15;9.07;;;6.03;;
39454;SDS011;25155;41.890;23.446;2023-06-19T01:07:45;6.32;;;4.60;;
39454;SDS011;25155;41.890;23.446;2023-06-19T01:10:18;6.03;;;4.35;;
39454;SDS011;25155;41.890;23.446;2023-06-19T01:12:50;6.67;;;3.40;;
39454;SDS011;25155;41.890;23.446;2023-06-19T01:15:23;5.82;;;3.80;;
39454;SDS011;25155;41.890;23.446;2023-06-19T01:17:52;5.45;;;3.35;;
39454;SDS011;25155;41.890;23.446;2023-06-19T01:20:22;7.07;;;3.78;;
39454;SDS011;25155;41.890;23.446;2023-06-19T01:22:51;5.95;;;3.47;;
39454;SDS011;25155;41.890;23.446;2023-06-19T01:25:22;6.55;;;3.25;;
39454;SDS011;25155;41.890;23.446;2023-06-19T01:27:50;6.05;;;4.07;;
39454;SDS011;25155;41.890;23.446;2023-06-19T01:30:18;6.00;;;3.65;;
39454;SDS011;25155;41.890;23.446;2023-06-19T01:32:47;4.85;;;3.75;;
39454;SDS011;25155;41.890;23.446;2023-06-19T01:35:21;4.60;;;3.30;;
39454;SDS011;25155;41.890;23.446;2023-06-19T01:37:51;4.60;;;3.20;;
39454;SDS011;25155;41.890;23.446;2023-06-19T01:40:19;5.20;;;3.60;;
39454;SDS011;25155;41.890;23.446;2023-06-19T01:42:51;4.55;;;2.83;;
39454;SDS011;25155;41.890;23.446;2023-06-19T01:45:20;5.05;;;3.17;;
39454;SDS011;25155;41.890;23.446;2023-06-19T01:47:48;4.82;;;3.60;;
39454;SDS011;25155;41.890;23.446;2023-06-19T01:50:15;4.72;;;3.17;;
39454;SDS011;25155;41.890;23.446;2023-06-19T01:52:42;5.70;;;3.50;;
39454;SDS011;25155;41.890;23.446;2023-06-19T01:55:11;5.72;;;3.20;;
39454;SDS011;25155;41.890;23.446;2023-06-19T01:57:38;4.95;;;3.38;;
39454;SDS011;25155;41.890;23.446;2023-06-19T02:00:06;6.28;;;3.78;;
39454;SDS011;25155;41.890;23.446;2023-06-19T02:02:35;4.28;;;3.03;;
39454;SDS011;25155;41.890;23.446;2023-06-19T02:05:03;8.70;;;3.53;;
39454;SDS011;25155;41.890;23.446;2023-06-19T02:07:31;12.43;;;4.20;;
39454;SDS011;25155;41.890;23.446;2023-06-19T02:09:59;8.15;;;4.78;;
39454;SDS011;25155;41.890;23.446;2023-06-19T02:12:27;7.00;;;4.75;;
39454;SDS011;25155;41.890;23.446;2023-06-19T02:14:54;7.75;;;4.82;;
39454;SDS011;25155;41.890;23.446;2023-06-19T02:17:22;6.63;;;4.70;;
39454;SDS011;25155;41.890;23.446;2023-06-19T02:19:49;8.57;;;5.32;;
39454;SDS011;25155;41.890;23.446;2023-06-19T02:22:16;5.72;;;4.32;;
39454;SDS011;25155;41.890;23.446;2023-06-19T02:24:44;6.25;;;4.38;;
39454;SDS011;25155;41.890;23.446;2023-06-19T02:27:11;5.13;;;3.95;;
39454;SDS011;25155;41.890;23.446;2023-06-19T02:29:40;6.40;;;4.82;;
39454;SDS011;25155;41.890;23.446;2023-06-19T02:32:08;5.88;;;4.47;;
39454;SDS011;25155;41.890;23.446;2023-06-19T02:34:35;6.32;;;5.18;;
39454;SDS011;25155;41.890;23.446;2023-06-19T02:37:03;8.30;;;5.28;;
39454;SDS011;25155;41.890;23.446;2023-06-19T02:39:30;8.13;;;5.57;;
39454;SDS011;25155;41.890;23.446;2023-06-19T02:41:57;8.10;;;5.20;;
39454;SDS011;25155;41.890;23.446;2023-06-19T02:44:25;6.00;;;4.40;;
39454;SDS011;25155;41.890;23.446;2023-06-19T02:46:53;7.45;;;4.57;;
39454;SDS011;25155;41.890;23.446;2023-06-19T02:49:22;5.78;;;3.97;;
39454;SDS011;25155;41.890;23.446;2023-06-19T02:51:49;4.20;;;3.08;;
39454;SDS011;25155;41.890;23.446;2023-06-19T02:54:16;5.75;;;3.13;;
39454;SDS011;25155;41.890;23.446;2023-06-19T02:56:43;5.30;;;3.75;;
39454;SDS011;25155;41.890;23.446;2023-06-19T02:59:10;5.03;;;3.35;;
39454;SDS011;25155;41.890;23.446;2023-06-19T03:01:37;4.80;;;3.60;;
39454;SDS011;25155;41.890;23.446;2023-06-19T03:04:06;4.93;;;4.07;;
39454;SDS011;25155;41.890;23.446;2023-06-19T03:06:33;4.97;;;3.97;;
39454;SDS011;25155;41.890;23.446;2023-06-19T03:09:05;5.22;;;3.85;;
39454;SDS011;25155;41.890;23.446;2023-06-19T03:11:37;6.55;;;3.40;;
39454;SDS011;25155;41.890;23.446;2023-06-19T03:14:05;5.55;;;3.17;;
39454;SDS011;25155;41.890;23.446;2023-06-19T03:16:34;5.43;;;3.42;;
39454;SDS011;25155;41.890;23.446;2023-06-19T03:24:00;5.35;;;3.70;;
39454;SDS011;25155;41.890;23.446;2023-06-19T03:26:27;8.57;;;3.60;;
39454;SDS011;25155;41.890;23.446;2023-06-19T03:28:55;8.98;;;3.17;;
39454;SDS011;25155;41.890;23.446;2023-06-19T03:31:22;6.55;;;3.65;;
39454;SDS011;25155;41.890;23.446;2023-06-19T03:33:50;10.93;;;3.72;;
39454;SDS011;25155;41.890;23.446;2023-06-19T03:36:18;4.63;;;3.45;;
39454;SDS011;25155;41.890;23.446;2023-06-19T03:38:45;4.75;;;3.70;;
39454;SDS011;25155;41.890;23.446;2023-06-19T03:41:12;4.85;;;3.70;;
39454;SDS011;25155;41.890;23.446;2023-06-19T03:43:39;6.60;;;3.78;;
39454;SDS011;25155;41.890;23.446;2023-06-19T03:46:06;5.47;;;3.35;;
39454;SDS011;25155;41.890;23.446;2023-06-19T03:48:34;4.18;;;3.08;;
39454;SDS011;25155;41.890;23.446;2023-06-19T03:51:01;5.72;;;3.38;;
39454;SDS011;25155;41.890;23.446;2023-06-19T03:53:30;4.75;;;3.78;;
39454;SDS011;25155;41.890;23.446;2023-06-19T03:55:57;5.35;;;3.72;;
39454;SDS011;25155;41.890;23.446;2023-06-19T03:58:25;4.00;;;3.00;;
39454;SDS011;25155;41.890;23.446;2023-06-19T04:00:52;3.90;;;2.60;;
39454;SDS011;25155;41.890;23.446;2023-06-19T04:03:19;5.18;;;3.00;;
39454;SDS011;25155;41.890;23.446;2023-06-19T04:05:46;4.18;;;3.00;;
39454;SDS011;25155;41.890;23.446;2023-06-19T04:08:14;3.17;;;2.30;;
39454;SDS011;25155;41.890;23.446;2023-06-19T04:10:43;4.30;;;2.60;;
39454;SDS011;25155;41.890;23.446;2023-06-19T04:13:11;4.47;;;2.40;;
39454;SDS011;25155;41.890;23.446;2023-06-19T04:15:38;4.60;;;3.30;;
39454;SDS011;25155;41.890;23.446;2023-06-19T04:18:05;4.72;;;3.40;;
39454;SDS011;25155;41.890;23.446;2023-06-19T04:20:33;4.18;;;3.13;;
39454;SDS011;25155;41.890;23.446;2023-06-19T04:23:00;5.15;;;3.10;;
39454;SDS011;25155;41.890;23.446;2023-06-19T04:25:27;4.72;;;3.38;;
39454;SDS011;25155;41.890;23.446;2023-06-19T04:27:56;4.20;;;3.00;;
39454;SDS011;25155;41.890;23.446;2023-06-19T04:30:23;5.53;;;3.65;;
39454;SDS011;25155;41.890;23.446;2023-06-19T04:32:50;12.50;;;4.28;;
39454;SDS011;25155;41.890;23.446;2023-06-19T04:35:18;7.63;;;5.72;;
39454;SDS011;25155;41.890;23.446;2023-06-19T04:37:45;5.57;;;4.47;;
39454;SDS011;25155;41.890;23.446;2023-06-19T04:40:14;7.20;;;5.90;;
39454;SDS011;25155;41.890;23.446;2023-06-19T04:42:41;10.57;;;6.18;;
39454;SDS011;25155;41.890;23.446;2023-06-19T04:45:10;6.55;;;5.35;;
39454;SDS011;25155;41.890;23.446;2023-06-19T04:47:37;6.45;;;4.85;;
39454;SDS011;25155;41.890;23.446;2023-06-19T04:50:05;63.25;;;7.60;;
39454;SDS011;25155;41.890;23.446;2023-06-19T04:52:34;6.03;;;4.40;;
39454;SDS011;25155;41.890;23.446;2023-06-19T04:55:01;6.82;;;4.63;;
39454;SDS011;25155;41.890;23.446;2023-06-19T04:57:29;6.88;;;5.05;;
39454;SDS011;25155;41.890;23.446;2023-06-19T04:59:56;6.72;;;4.45;;
39454;SDS011;25155;41.890;23.446;2023-06-19T05:02:25;5.80;;;4.50;;
39454;SDS011;25155;41.890;23.446;2023-06-19T05:04:52;4.60;;;3.42;;
39454;SDS011;25155;41.890;23.446;2023-06-19T05:07:19;6.53;;;4.07;;
39454;SDS011;25155;41.890;23.446;2023-06-19T05:09:46;6.13;;;4.57;;
39454;SDS011;25155;41.890;23.446;2023-06-19T05:12:13;5.45;;;3.83;;
39454;SDS011;25155;41.890;23.446;2023-06-19T05:14:41;5.18;;;3.78;;
39454;SDS011;25155;41.890;23.446;2023-06-19T05:17:08;6.32;;;4.65;;
39454;SDS011;25155;41.890;23.446;2023-06-19T05:19:37;7.93;;;6.28;;
39454;SDS011;25155;41.890;23.446;2023-06-19T05:22:04;7.15;;;5.50;;
39454;SDS011;25155;41.890;23.446;2023-06-19T05:24:32;7.57;;;5.30;;
39454;SDS011;25155;41.890;23.446;2023-06-19T05:26:59;7.00;;;5.60;;
39454;SDS011;25155;41.890;23.446;2023-06-19T05:29:26;6.50;;;5.50;;
39454;SDS011;25155;41.890;23.446;2023-06-19T05:31:54;7.50;;;5.15;;
39454;SDS011;25155;41.890;23.446;2023-06-19T05:34:22;6.32;;;4.82;;
39454;SDS011;25155;41.890;23.446;2023-06-19T05:36:50;5.88;;;4.50;;
39454;SDS011;25155;41.890;23.446;2023-06-19T05:39:17;7.22;;;5.95;;
39454;SDS011;25155;41.890;23.446;2023-06-19T05:41:45;6.63;;;5.25;;
39454;SDS011;25155;41.890;23.446;2023-06-19T05:44:12;8.77;;;7.13;;
39454;SDS011;25155;41.890;23.446;2023-06-19T05:46:41;9.95;;;7.85;;
39454;SDS011;25155;41.890;23.446;2023-06-19T05:49:09;8.00;;;6.38;;
39454;SDS011;25155;41.890;23.446;2023-06-19T05:51:36;7.35;;;5.85;;
39454;SDS011;25155;41.890;23.446;2023-06-19T05:54:05;8.05;;;5.95;;
39454;SDS011;25155;41.890;23.446;2023-06-19T05:56:32;8.13;;;6.35;;
39454;SDS011;25155;41.890;23.446;2023-06-19T05:59:00;9.25;;;7.10;;
39454;SDS011;25155;41.890;23.446;2023-06-19T06:01:28;7.20;;;5.80;;
39454;SDS011;25155;41.890;23.446;2023-06-19T06:03:56;10.68;;;7.50;;
39454;SDS011;25155;41.890;23.446;2023-06-19T06:06:23;13.38;;;9.65;;
39454;SDS011;25155;41.890;23.446;2023-06-19T06:08:51;9.07;;;7.32;;
39454;SDS011;25155;41.890;23.446;2023-06-19T06:11:19;12.50;;;8.88;;
39454;SDS011;25155;41.890;23.446;2023-06-19T06:13:46;12.35;;;8.93;;
39454;SDS011;25155;41.890;23.446;2023-06-19T06:18:49;12.20;;;9.82;;
39454;SDS011;25155;41.890;23.446;2023-06-19T06:21:16;13.15;;;10.55;;
39454;SDS011;25155;41.890;23.446;2023-06-19T06:23:44;15.05;;;10.20;;
39454;SDS011;25155;41.890;23.446;2023-06-19T06:26:13;14.98;;;11.25;;
39454;SDS011;25155;41.890;23.446;2023-06-19T06:28:41;14.80;;;10.93;;
39454;SDS011;25155;41.890;23.446;2023-06-19T06:31:09;12.38;;;9.95;;
39454;SDS011;25155;41.890;23.446;2023-06-19T06:33:36;12.05;;;9.70;;
39454;SDS011;25155;41.890;23.446;2023-06-19T06:36:03;12.32;;;10.45;;
39454;SDS011;25155;41.890;23.446;2023-06-19T06:38:30;12.63;;;10.75;;
39454;SDS011;25155;41.890;23.446;2023-06-19T06:40:57;11.77;;;9.75;;
39454;SDS011;25155;41.890;23.446;2023-06-19T06:43:26;10.77;;;9.15;;
39454;SDS011;25155;41.890;23.446;2023-06-19T06:45:54;11.57;;;9.32;;
39454;SDS011;25155;41.890;23.446;2023-06-19T06:48:22;12.85;;;10.20;;
39454;SDS011;25155;41.890;23.446;2023-06-19T06:50:49;11.80;;;10.23;;
39454;SDS011;25155;41.890;23.446;2023-06-19T06:53:16;13.43;;;9.57;;
39454;SDS011;25155;41.890;23.446;2023-06-19T06:55:43;12.18;;;9.88;;
39454;SDS011;25155;41.890;23.446;2023-06-19T06:58:10;13.00;;;11.10;;
39454;SDS011;25155;41.890;23.446;2023-06-19T07:00:39;12.45;;;11.13;;
39454;SDS011;25155;41.890;23.446;2023-06-19T07:03:08;11.70;;;9.88;;
39454;SDS011;25155;41.890;23.446;2023-06-19T07:05:35;11.48;;;9.85;;
39454;SDS011;25155;41.890;23.446;2023-06-19T07:08:02;12.27;;;10.98;;
39454;SDS011;25155;41.890;23.446;2023-06-19T07:10:30;14.68;;;12.82;;
39454;SDS011;25155;41.890;23.446;2023-06-19T07:12:57;14.77;;;11.98;;
39454;SDS011;25155;41.890;23.446;2023-06-19T07:15:24;12.70;;;10.90;;
39454;SDS011;25155;41.890;23.446;2023-06-19T07:17:51;13.93;;;11.82;;
39454;SDS011;25155;41.890;23.446;2023-06-19T07:20:20;13.32;;;11.65;;
39454;SDS011;25155;41.890;23.446;2023-06-19T07:22:49;11.82;;;10.45;;
39454;SDS011;25155;41.890;23.446;2023-06-19T07:25:17;11.73;;;10.13;;
39454;SDS011;25155;41.890;23.446;2023-06-19T07:27:44;11.68;;;9.95;;
39454;SDS011;25155;41.890;23.446;2023-06-19T07:30:12;10.68;;;9.57;;
39454;SDS011;25155;41.890;23.446;2023-06-19T07:32:39;12.25;;;10.38;;
39454;SDS011;25155;41.890;23.446;2023-06-19T07:35:07;13.35;;;9.85;;
39454;SDS011;25155;41.890;23.446;2023-06-19T07:37:36;9.45;;;8.40;;
39454;SDS011;25155;41.890;23.446;2023-06-19T07:40:03;9.23;;;7.88;;
39454;SDS011;25155;41.890;23.446;2023-06-19T07:42:31;8.13;;;7.28;;
39454;SDS011;25155;41.890;23.446;2023-06-19T07:44:58;8.00;;;6.97;;
39454;SDS011;25155;41.890;23.446;2023-06-19T07:47:26;7.40;;;6.10;;
39454;SDS011;25155;41.890;23.446;2023-06-19T07:49:53;8.63;;;6.90;;
39454;SDS011;25155;41.890;23.446;2023-06-19T07:52:20;10.18;;;7.40;;
39454;SDS011;25155;41.890;23.446;2023-06-19T07:54:49;7.80;;;6.50;;
39454;SDS011;25155;41.890;23.446;2023-06-19T07:57:17;7.97;;;6.53;;
39454;SDS011;25155;41.890;23.446;2023-06-19T07:59:44;6.25;;;5.60;;
39454;SDS011;25155;41.890;23.446;2023-06-19T08:02:12;7.80;;;6.18;;
39454;SDS011;25155;41.890;23.446;2023-06-19T08:04:39;6.38;;;5.35;;
39454;SDS011;25155;41.890;23.446;2023-06-19T08:07:06;6.63;;;5.55;;
39454;SDS011;25155;41.890;23.446;2023-06-19T08:09:33;5.60;;;4.70;;
39454;SDS011;25155;41.890;23.446;2023-06-19T08:12:02;5.78;;;4.60;;
39454;SDS011;25155;41.890;23.446;2023-06-19T08:14:30;6.78;;;4.97;;
39454;SDS011;25155;41.890;23.446;2023-06-19T08:16:57;6.07;;;4.00;;
39454;SDS011;25155;41.890;23.446;2023-06-19T08:19:24;5.45;;;3.72;;
39454;SDS011;25155;41.890;23.446;2023-06-19T08:21:51;4.50;;;3.63;;
39454;SDS011;25155;41.890;23.446;2023-06-19T08:24:18;4.32;;;3.47;;
39454;SDS011;25155;41.890;23.446;2023-06-19T08:26:45;4.82;;;3.28;;
39454;SDS011;25155;41.890;23.446;2023-06-19T08:29:18;4.00;;;3.20;;
39454;SDS011;25155;41.890;23.446;2023-06-19T08:31:45;4.70;;;3.05;;
39454;SDS011;25155;41.890;23.446;2023-06-19T08:34:12;4.10;;;3.00;;
39454;SDS011;25155;41.890;23.446;2023-06-19T08:36:39;4.32;;;2.70;;
39454;SDS011;25155;41.890;23.446;2023-06-19T08:39:07;4.32;;;3.30;;
39454;SDS011;25155;41.890;23.446;2023-06-19T08:41:34;4.28;;;3.10;;
39454;SDS011;25155;41.890;23.446;2023-06-19T08:44:03;4.82;;;3.05;;
39454;SDS011;25155;41.890;23.446;2023-06-19T08:46:32;4.60;;;3.70;;
39454;SDS011;25155;41.890;23.446;2023-06-19T08:49:02;5.32;;;3.35;;
39454;SDS011;25155;41.890;23.446;2023-06-19T08:51:31;5.35;;;4.05;;
39454;SDS011;25155;41.890;23.446;2023-06-19T08:54:00;4.72;;;3.67;;
39454;SDS011;25155;41.890;23.446;2023-06-19T08:56:28;5.35;;;3.90;;
39454;SDS011;25155;41.890;23.446;2023-06-19T08:59:07;6.13;;;3.70;;
39454;SDS011;25155;41.890;23.446;2023-06-19T09:01:37;4.80;;;3.75;;
39454;SDS011;25155;41.890;23.446;2023-06-19T09:04:09;5.35;;;4.05;;
39454;SDS011;25155;41.890;23.446;2023-06-19T09:06:45;5.22;;;4.53;;
39454;SDS011;25155;41.890;23.446;2023-06-19T09:09:16;6.15;;;4.25;;
39454;SDS011;25155;41.890;23.446;2023-06-19T09:11:56;5.82;;;4.00;;
39454;SDS011;25155;41.890;23.446;2023-06-19T09:14:30;6.15;;;4.25;;
39454;SDS011;25155;41.890;23.446;2023-06-19T09:17:00;5.80;;;4.50;;
39454;SDS011;25155;41.890;23.446;2023-06-19T09:19:28;6.93;;;4.30;;
39454;SDS011;25155;41.890;23.446;2023-06-19T09:21:59;4.85;;;3.65;;
39454;SDS011;25155;41.890;23.446;2023-06-19T09:24:33;5.90;;;4.25;;
39454;SDS011;25155;41.890;23.446;2023-06-19T09:27:05;6.88;;;4.70;;
39454;SDS011;25155;41.890;23.446;2023-06-19T09:29:35;7.13;;;5.20;;
39454;SDS011;25155;41.890;23.446;2023-06-19T09:34:49;6.53;;;4.63;;
39454;SDS011;25155;41.890;23.446;2023-06-19T09:37:19;4.70;;;3.97;;
39454;SDS011;25155;41.890;23.446;2023-06-19T09:39:49;6.10;;;4.68;;
39454;SDS011;25155;41.890;23.446;2023-06-19T09:42:21;6.20;;;4.63;;
39454;SDS011;25155;41.890;23.446;2023-06-19T09:44:59;5.68;;;3.95;;
39454;SDS011;25155;41.890;23.446;2023-06-19T09:47:31;7.72;;;4.82;;
39454;SDS011;25155;41.890;23.446;2023-06-19T09:50:02;7.53;;;4.88;;
39454;SDS011;25155;41.890;23.446;2023-06-19T09:52:30;5.40;;;4.25;;
39454;SDS011;25155;41.890;23.446;2023-06-19T09:54:57;5.53;;;4.07;;
39454;SDS011;25155;41.890;23.446;2023-06-19T09:57:27;5.50;;;4.22;;
39454;SDS011;25155;41.890;23.446;2023-06-19T09:59:56;8.55;;;4.95;;
39454;SDS011;25155;41.890;23.446;2023-06-19T10:02:35;7.43;;;5.57;;
39454;SDS011;25155;41.890;23.446;2023-06-19T10:05:03;8.02;;;5.30;;
39454;SDS011;25155;41.890;23.446;2023-06-19T10:07:34;7.88;;;5.25;;
39454;SDS011;25155;41.890;23.446;2023-06-19T10:10:03;6.40;;;5.00;;
39454;SDS011;25155;41.890;23.446;2023-06-19T10:12:36;8.20;;;5.60;;
39454;SDS011;25155;41.890;23.446;2023-06-19T10:15:11;7.03;;;5.10;;
39454;SDS011;25155;41.890;23.446;2023-06-19T10:17:47;8.30;;;5.50;;
39454;SDS011;25155;41.890;23.446;2023-06-19T10:20:22;6.43;;;5.30;;
39454;SDS011;25155;41.890;23.446;2023-06-19T10:22:59;7.40;;;4.97;;
39454;SDS011;25155;41.890;23.446;2023-06-19T10:25:29;6.95;;;5.28;;
39454;SDS011;25155;41.890;23.446;2023-06-19T10:27:58;6.18;;;4.63;;
39454;SDS011;25155;41.890;23.446;2023-06-19T10:30:25;8.00;;;5.05;;
39454;SDS011;25155;41.890;23.446;2023-06-19T10:32:54;9.25;;;5.38;;
39454;SDS011;25155;41.890;23.446;2023-06-19T10:35:22;7.45;;;4.85;;
39454;SDS011;25155;41.890;23.446;2023-06-19T10:37:50;7.05;;;4.68;;
39454;SDS011;25155;41.890;23.446;2023-06-19T10:40:18;6.75;;;4.65;;
39454;SDS011;25155;41.890;23.446;2023-06-19T10:42:45;5.63;;;4.30;;
39454;SDS011;25155;41.890;23.446;2023-06-19T10:45:12;9.00;;;4.88;;
39454;SDS011;25155;41.890;23.446;2023-06-19T10:47:41;6.45;;;4.50;;
39454;SDS011;25155;41.890;23.446;2023-06-19T10:50:13;5.22;;;4.30;;
39454;SDS011;25155;41.890;23.446;2023-06-19T10:52:42;7.53;;;4.30;;
39454;SDS011;25155;41.890;23.446;2023-06-19T10:55:10;10.93;;;4.38;;
39454;SDS011;25155;41.890;23.446;2023-06-19T10:57:38;5.22;;;3.90;;
39454;SDS011;25155;41.890;23.446;2023-06-19T11:00:07;6.55;;;4.38;;
39454;SDS011;25155;41.890;23.446;2023-06-19T11:02:39;5.28;;;3.60;;
39454;SDS011;25155;41.890;23.446;2023-06-19T11:05:09;5.15;;;3.50;;
39454;SDS011;25155;41.890;23.446;2023-06-19T11:07:38;6.03;;;3.97;;
39454;SDS011;25155;41.890;23.446;2023-06-19T11:10:06;4.97;;;3.55;;
39454;SDS011;25155;41.890;23.446;2023-06-19T11:12:34;5.18;;;3.88;;
39454;SDS011;25155;41.890;23.446;2023-06-19T11:15:04;5.53;;;3.53;;
39454;SDS011;25155;41.890;23.446;2023-06-19T11:17:32;5.95;;;3.92;;
39454;SDS011;25155;41.890;23.446;2023-06-19T11:19:59;7.05;;;3.80;;
39454;SDS011;25155;41.890;23.446;2023-06-19T11:22:36;7.38;;;4.13;;
39454;SDS011;25155;41.890;23.446;2023-06-19T11:25:07;6.80;;;4.15;;
39454;SDS011;25155;41.890;23.446;2023-06-19T11:27:39;6.35;;;3.72;;
39454;SDS011;25155;41.890;23.446;2023-06-19T11:30:07;6.00;;;4.10;;
39454;SDS011;25155;41.890;23.446;2023-06-19T11:32:36;6.22;;;4.00;;
39454;SDS011;25155;41.890;23.446;2023-06-19T11:35:10;6.75;;;3.90;;
39454;SDS011;25155;41.890;23.446;2023-06-19T11:37:43;5.78;;;3.70;;
39454;SDS011;25155;41.890;23.446;2023-06-19T11:40:10;4.65;;;3.30;;
39454;SDS011;25155;41.890;23.446;2023-06-19T11:42:51;5.05;;;3.45;;
39454;SDS011;25155;41.890;23.446;2023-06-19T11:45:20;5.10;;;3.25;;
39454;SDS011;25155;41.890;23.446;2023-06-19T11:47:49;5.55;;;3.60;;
39454;SDS011;25155;41.890;23.446;2023-06-19T11:50:16;4.90;;;3.00;;
39454;SDS011;25155;41.890;23.446;2023-06-19T11:52:46;6.63;;;3.45;;
39454;SDS011;25155;41.890;23.446;2023-06-19T11:55:13;5.88;;;3.33;;
39454;SDS011;25155;41.890;23.446;2023-06-19T11:57:41;5.93;;;3.35;;
39454;SDS011;25155;41.890;23.446;2023-06-19T12:00:15;6.32;;;3.33;;
39454;SDS011;25155;41.890;23.446;2023-06-19T12:02:44;5.05;;;3.42;;
39454;SDS011;25155;41.890;23.446;2023-06-19T12:05:13;5.22;;;3.10;;
39454;SDS011;25155;41.890;23.446;2023-06-19T12:07:40;5.03;;;3.50;;
39454;SDS011;25155;41.890;23.446;2023-06-19T12:10:10;4.90;;;3.42;;
39454;SDS011;25155;41.890;23.446;2023-06-19T12:12:37;4.40;;;3.05;;
39454;SDS011;25155;41.890;23.446;2023-06-19T12:15:05;5.43;;;3.42;;
39454;SDS011;25155;41.890;23.446;2023-06-19T12:17:33;4.90;;;3.25;;
39454;SDS011;25155;41.890;23.446;2023-06-19T12:20:00;5.20;;;3.25;;
39454;SDS011;25155;41.890;23.446;2023-06-19T12:22:30;4.03;;;2.90;;
39454;SDS011;25155;41.890;23.446;2023-06-19T12:24:58;6.55;;;3.63;;
39454;SDS011;25155;41.890;23.446;2023-06-19T12:27:26;9.48;;;3.53;;
39454;SDS011;25155;41.890;23.446;2023-06-19T12:29:54;5.00;;;3.38;;
39454;SDS011;25155;41.890;23.446;2023-06-19T12:32:21;7.30;;;3.45;;
39454;SDS011;25155;41.890;23.446;2023-06-19T12:34:49;7.00;;;3.58;;
39454;SDS011;25155;41.890;23.446;2023-06-19T12:37:19;5.25;;;3.30;;
39454;SDS011;25155;41.890;23.446;2023-06-19T12:39:47;6.95;;;2.95;;
39454;SDS011;25155;41.890;23.446;2023-06-19T12:42:14;5.50;;;3.40;;
39454;SDS011;25155;41.890;23.446;2023-06-19T12:44:43;6.50;;;3.10;;
39454;SDS011;25155;41.890;23.446;2023-06-19T12:47:10;5.13;;;3.22;;
39454;SDS011;25155;41.890;23.446;2023-06-19T12:49:38;4.63;;;3.03;;
39454;SDS011;25155;41.890;23.446;2023-06-19T12:52:05;5.07;;;3.00;;
39454;SDS011;25155;41.890;23.446;2023-06-19T12:54:33;7.15;;;2.95;;
39454;SDS011;25155;41.890;23.446;2023-06-19T12:57:01;5.20;;;2.90;;
39454;SDS011;25155;41.890;23.446;2023-06-19T12:59:28;3.50;;;2.80;;
39454;SDS011;25155;41.890;23.446;2023-06-19T13:01:59;7.18;;;3.13;;
39454;SDS011;25155;41.890;23.446;2023-06-19T13:04:26;4.10;;;2.90;;
39454;SDS011;25155;41.890;23.446;2023-06-19T13:06:53;6.43;;;3.15;;
39454;SDS011;25155;41.890;23.446;2023-06-19T13:09:20;5.53;;;2.83;;
39454;SDS011;25155;41.890;23.446;2023-06-19T13:11:47;4.22;;;3.03;;
39454;SDS011;25155;41.890;23.446;2023-06-19T13:14:15;4.00;;;2.80;;
39454;SDS011;25155;41.890;23.446;2023-06-19T13:16:42;7.07;;;3.30;;
39454;SDS011;25155;41.890;23.446;2023-06-19T13:19:10;4.25;;;3.17;;
39454;SDS011;25155;41.890;23.446;2023-06-19T13:21:37;4.35;;;3.00;;
39454;SDS011;25155;41.890;23.446;2023-06-19T13:24:05;4.55;;;3.03;;
39454;SDS011;25155;41.890;23.446;2023-06-19T13:26:32;6.97;;;3.00;;
39454;SDS011;25155;41.890;23.446;2023-06-19T13:28:59;5.25;;;3.28;;
39454;SDS011;25155;41.890;23.446;2023-06-19T13:31:26;4.03;;;3.00;;
39454;SDS011;25155;41.890;23.446;2023-06-19T13:33:53;5.18;;;3.10;;
39454;SDS011;25155;41.890;23.446;2023-06-19T13:36:22;4.43;;;2.95;;
39454;SDS011;25155;41.890;23.446;2023-06-19T13:38:52;5.05;;;2.80;;
39454;SDS011;25155;41.890;23.446;2023-06-19T13:41:19;4.15;;;3.08;;
39454;SDS011;25155;41.890;23.446;2023-06-19T13:43:49;5.28;;;3.22;;
39454;SDS011;25155;41.890;23.446;2023-06-19T13:46:16;5.20;;;2.92;;
39454;SDS011;25155;41.890;23.446;2023-06-19T13:48:43;7.63;;;3.00;;
39454;SDS011;25155;41.890;23.446;2023-06-19T13:51:14;4.95;;;3.17;;
39454;SDS011;25155;41.890;23.446;2023-06-19T13:53:42;4.55;;;3.10;;
39454;SDS011;25155;41.890;23.446;2023-06-19T13:56:10;4.78;;;3.40;;
39454;SDS011;25155;41.890;23.446;2023-06-19T13:58:37;5.13;;;3.00;;
39454;SDS011;25155;41.890;23.446;2023-06-19T14:01:05;5.43;;;3.25;;
39454;SDS011;25155;41.890;23.446;2023-06-19T14:03:32;5.30;;;3.10;;
39454;SDS011;25155;41.890;23.446;2023-06-19T14:05:59;4.43;;;3.20;;
39454;SDS011;25155;41.890;23.446;2023-06-19T14:08:26;4.55;;;3.05;;
39454;SDS011;25155;41.890;23.446;2023-06-19T14:10:56;4.93;;;3.30;;
39454;SDS011;25155;41.890;23.446;2023-06-19T14:13:23;4.30;;;2.90;;
39454;SDS011;25155;41.890;23.446;2023-06-19T14:15:50;4.55;;;3.00;;
39454;SDS011;25155;41.890;23.446;2023-06-19T14:18:18;5.20;;;3.22;;
39454;SDS011;25155;41.890;23.446;2023-06-19T14:20:45;4.10;;;2.80;;
39454;SDS011;25155;41.890;23.446;2023-06-19T14:23:12;3.67;;;2.63;;
39454;SDS011;25155;41.890;23.446;2023-06-19T14:25:39;4.35;;;2.95;;
39454;SDS011;25155;41.890;23.446;2023-06-19T14:28:07;7.07;;;3.08;;
39454;SDS011;25155;41.890;23.446;2023-06-19T14:30:35;5.43;;;3.30;;
39454;SDS011;25155;41.890;23.446;2023-06-19T14:33:02;4.85;;;2.78;;
39454;SDS011;25155;41.890;23.446;2023-06-19T14:35:29;5.22;;;3.22;;
39454;SDS011;25155;41.890;23.446;2023-06-19T14:37:56;6.72;;;3.22;;
39454;SDS011;25155;41.890;23.446;2023-06-19T14:40:23;4.93;;;3.10;;
39454;SDS011;25155;41.890;23.446;2023-06-19T14:42:51;4.75;;;3.13;;
39454;SDS011;25155;41.890;23.446;2023-06-19T14:45:19;4.85;;;3.10;;
39454;SDS011;25155;41.890;23.446;2023-06-19T14:47:46;6.57;;;2.95;;
39454;SDS011;25155;41.890;23.446;2023-06-19T14:50:13;5.65;;;3.20;;